<?xml version="1.0" encoding="UTF-8" standalone="no" ?>
<gpx xmlns="http://www.topografix.com/GPX/1/1" xmlns:xsi="http://www.w3.org/2001/XMLSchema-instance" xsi:schemaLocation="http://www.topografix.com/GPX/1/1 http://www.topografix.com/GPX/1/1/gpx.xsd" version="1.1" creator="VisuGPX - https://www.visugpx.com">
  <metadata>
    <name>Pélussin-Col de Pavezin-Condrieu-Pélussin</name>
    <desc><![CDATA[descente Condrieu remontée Verin]]></desc>
  </metadata>
  <trk>
    <name><![CDATA[--Pélussin-- OR-5374121:Pavezin-Condrieu-Vérin]]></name>
    <trkseg>
      <trkpt lat="45.41868" lon="4.67811">
        <ele>439</ele>
        <time>2015-10-18T19:38:38Z</time>
      </trkpt>
      <trkpt lat="45.42302" lon="4.66948">
        <ele>469</ele>
        <time>2015-10-18T19:40:38Z</time>
      </trkpt>
      <trkpt lat="45.42095" lon="4.67019">
        <ele>491</ele>
        <time>2015-10-18T19:42:38Z</time>
      </trkpt>
      <trkpt lat="45.4261" lon="4.66186">
        <ele>528</ele>
        <time>2015-10-18T19:44:38Z</time>
      </trkpt>
      <trkpt lat="45.42651" lon="4.66176">
        <ele>530</ele>
        <time>2015-10-18T19:46:38Z</time>
      </trkpt>
      <trkpt lat="45.42693" lon="4.66186">
        <ele>532</ele>
        <time>2015-10-18T19:48:38Z</time>
      </trkpt>
      <trkpt lat="45.42857" lon="4.66134">
        <ele>542</ele>
        <time>2015-10-18T19:50:38Z</time>
      </trkpt>
      <trkpt lat="45.42897" lon="4.66031">
        <ele>546</ele>
        <time>2015-10-18T19:52:38Z</time>
      </trkpt>
      <trkpt lat="45.42913" lon="4.65985">
        <ele>548</ele>
        <time>2015-10-18T19:54:38Z</time>
      </trkpt>
      <trkpt lat="45.42935" lon="4.65958">
        <ele>546</ele>
        <time>2015-10-18T19:56:38Z</time>
      </trkpt>
      <trkpt lat="45.43025" lon="4.65916">
        <ele>535</ele>
        <time>2015-10-18T19:58:38Z</time>
      </trkpt>
      <trkpt lat="45.43065" lon="4.6585">
        <ele>536</ele>
        <time>2015-10-18T20:00:38Z</time>
      </trkpt>
      <trkpt lat="45.43108" lon="4.658">
        <ele>537</ele>
        <time>2015-10-18T20:02:38Z</time>
      </trkpt>
      <trkpt lat="45.43199" lon="4.65779">
        <ele>535</ele>
        <time>2015-10-18T20:04:38Z</time>
      </trkpt>
      <trkpt lat="45.43233" lon="4.65751">
        <ele>536</ele>
        <time>2015-10-18T20:06:38Z</time>
      </trkpt>
      <trkpt lat="45.43268" lon="4.65676">
        <ele>542</ele>
        <time>2015-10-18T20:08:38Z</time>
      </trkpt>
      <trkpt lat="45.43306" lon="4.65607">
        <ele>545</ele>
        <time>2015-10-18T20:10:38Z</time>
      </trkpt>
      <trkpt lat="45.43379" lon="4.65528">
        <ele>547</ele>
        <time>2015-10-18T20:12:38Z</time>
      </trkpt>
      <trkpt lat="45.43563" lon="4.6581">
        <ele>513</ele>
        <time>2015-10-18T20:14:38Z</time>
      </trkpt>
      <trkpt lat="45.4365" lon="4.6582">
        <ele>512</ele>
        <time>2015-10-18T20:16:38Z</time>
      </trkpt>
      <trkpt lat="45.43681" lon="4.65932">
        <ele>509</ele>
        <time>2015-10-18T20:18:38Z</time>
      </trkpt>
      <trkpt lat="45.43612" lon="4.6668">
        <ele>505</ele>
        <time>2015-10-18T20:20:38Z</time>
      </trkpt>
      <trkpt lat="45.43746" lon="4.66594">
        <ele>525</ele>
        <time>2015-10-18T20:22:38Z</time>
      </trkpt>
      <trkpt lat="45.43805" lon="4.66671">
        <ele>531</ele>
        <time>2015-10-18T20:24:38Z</time>
      </trkpt>
      <trkpt lat="45.43833" lon="4.66768">
        <ele>534</ele>
        <time>2015-10-18T20:26:38Z</time>
      </trkpt>
      <trkpt lat="45.43785" lon="4.66805">
        <ele>526</ele>
        <time>2015-10-18T20:28:38Z</time>
      </trkpt>
      <trkpt lat="45.43754" lon="4.66921">
        <ele>517</ele>
        <time>2015-10-18T20:30:38Z</time>
      </trkpt>
      <trkpt lat="45.43705" lon="4.6724">
        <ele>485</ele>
        <time>2015-10-18T20:32:38Z</time>
      </trkpt>
      <trkpt lat="45.43683" lon="4.67684">
        <ele>464</ele>
        <time>2015-10-18T20:34:38Z</time>
      </trkpt>
      <trkpt lat="45.43642" lon="4.67783">
        <ele>466</ele>
        <time>2015-10-18T20:36:38Z</time>
      </trkpt>
      <trkpt lat="45.43607" lon="4.67879">
        <ele>472</ele>
        <time>2015-10-18T20:38:38Z</time>
      </trkpt>
      <trkpt lat="45.43582" lon="4.67985">
        <ele>478</ele>
        <time>2015-10-18T20:40:38Z</time>
      </trkpt>
      <trkpt lat="45.43561" lon="4.6803">
        <ele>478</ele>
        <time>2015-10-18T20:42:38Z</time>
      </trkpt>
      <trkpt lat="45.43669" lon="4.68073">
        <ele>491</ele>
        <time>2015-10-18T20:44:38Z</time>
      </trkpt>
      <trkpt lat="45.43791" lon="4.68047">
        <ele>493</ele>
        <time>2015-10-18T20:46:38Z</time>
      </trkpt>
      <trkpt lat="45.43856" lon="4.68064">
        <ele>497</ele>
        <time>2015-10-18T20:48:38Z</time>
      </trkpt>
      <trkpt lat="45.4392" lon="4.67982">
        <ele>494</ele>
        <time>2015-10-18T20:50:38Z</time>
      </trkpt>
      <trkpt lat="45.44085" lon="4.67957">
        <ele>491</ele>
        <time>2015-10-18T20:52:38Z</time>
      </trkpt>
      <trkpt lat="45.44113" lon="4.67888">
        <ele>493</ele>
        <time>2015-10-18T20:54:38Z</time>
      </trkpt>
      <trkpt lat="45.44228" lon="4.67933">
        <ele>499</ele>
        <time>2015-10-18T20:56:38Z</time>
      </trkpt>
      <trkpt lat="45.44304" lon="4.67935">
        <ele>507</ele>
        <time>2015-10-18T20:58:38Z</time>
      </trkpt>
      <trkpt lat="45.44449" lon="4.68118">
        <ele>522</ele>
        <time>2015-10-18T21:00:38Z</time>
      </trkpt>
      <trkpt lat="45.44455" lon="4.68161">
        <ele>521</ele>
        <time>2015-10-18T21:02:38Z</time>
      </trkpt>
      <trkpt lat="45.4449" lon="4.68294">
        <ele>525</ele>
        <time>2015-10-18T21:04:38Z</time>
      </trkpt>
      <trkpt lat="45.44584" lon="4.68199">
        <ele>540</ele>
        <time>2015-10-18T21:06:38Z</time>
      </trkpt>
      <trkpt lat="45.4473" lon="4.68517">
        <ele>552</ele>
        <time>2015-10-18T21:08:38Z</time>
      </trkpt>
      <trkpt lat="45.44757" lon="4.68452">
        <ele>560</ele>
        <time>2015-10-18T21:10:38Z</time>
      </trkpt>
      <trkpt lat="45.44754" lon="4.68375">
        <ele>568</ele>
        <time>2015-10-18T21:12:38Z</time>
      </trkpt>
      <trkpt lat="45.44741" lon="4.68304">
        <ele>573</ele>
        <time>2015-10-18T21:14:38Z</time>
      </trkpt>
      <trkpt lat="45.44732" lon="4.68182">
        <ele>580</ele>
        <time>2015-10-18T21:16:38Z</time>
      </trkpt>
      <trkpt lat="45.44724" lon="4.68135">
        <ele>581</ele>
        <time>2015-10-18T21:18:38Z</time>
      </trkpt>
      <trkpt lat="45.44726" lon="4.68073">
        <ele>586</ele>
        <time>2015-10-18T21:20:38Z</time>
      </trkpt>
      <trkpt lat="45.44757" lon="4.68186">
        <ele>587</ele>
        <time>2015-10-18T21:22:38Z</time>
      </trkpt>
      <trkpt lat="45.44788" lon="4.68201">
        <ele>594</ele>
        <time>2015-10-18T21:24:38Z</time>
      </trkpt>
      <trkpt lat="45.44831" lon="4.68197">
        <ele>605</ele>
        <time>2015-10-18T21:26:38Z</time>
      </trkpt>
      <trkpt lat="45.44901" lon="4.68259">
        <ele>614</ele>
        <time>2015-10-18T21:28:38Z</time>
      </trkpt>
      <trkpt lat="45.45042" lon="4.68309">
        <ele>619</ele>
        <time>2015-10-18T21:30:38Z</time>
      </trkpt>
      <trkpt lat="45.45107" lon="4.68261">
        <ele>629</ele>
        <time>2015-10-18T21:32:38Z</time>
      </trkpt>
      <trkpt lat="45.45185" lon="4.68289">
        <ele>623</ele>
        <time>2015-10-18T21:34:38Z</time>
      </trkpt>
      <trkpt lat="45.45236" lon="4.68257">
        <ele>626</ele>
        <time>2015-10-18T21:36:38Z</time>
      </trkpt>
      <trkpt lat="45.4526" lon="4.68188">
        <ele>636</ele>
        <time>2015-10-18T21:38:38Z</time>
      </trkpt>
      <trkpt lat="45.45316" lon="4.68146">
        <ele>638</ele>
        <time>2015-10-18T21:40:38Z</time>
      </trkpt>
      <trkpt lat="45.45415" lon="4.68201">
        <ele>631</ele>
        <time>2015-10-18T21:42:38Z</time>
      </trkpt>
      <trkpt lat="45.45447" lon="4.68206">
        <ele>635</ele>
        <time>2015-10-18T21:44:38Z</time>
      </trkpt>
      <trkpt lat="45.45364" lon="4.68146">
        <ele>640</ele>
        <time>2015-10-18T21:46:38Z</time>
      </trkpt>
      <trkpt lat="45.45337" lon="4.68105">
        <ele>649</ele>
        <time>2015-10-18T21:48:38Z</time>
      </trkpt>
      <trkpt lat="45.45384" lon="4.68128">
        <ele>649</ele>
        <time>2015-10-18T21:50:38Z</time>
      </trkpt>
      <trkpt lat="45.45454" lon="4.68124">
        <ele>662</ele>
        <time>2015-10-18T21:52:38Z</time>
      </trkpt>
      <trkpt lat="45.4554" lon="4.68133">
        <ele>676</ele>
        <time>2015-10-18T21:54:38Z</time>
      </trkpt>
      <trkpt lat="45.45716" lon="4.68238">
        <ele>679</ele>
        <time>2015-10-18T21:56:38Z</time>
      </trkpt>
      <trkpt lat="45.45826" lon="4.68214">
        <ele>688</ele>
        <time>2015-10-18T21:58:38Z</time>
      </trkpt>
      <trkpt lat="45.45971" lon="4.68206">
        <ele>681</ele>
        <time>2015-10-18T22:00:38Z</time>
      </trkpt>
      <trkpt lat="45.46088" lon="4.68126">
        <ele>688</ele>
        <time>2015-10-18T22:02:38Z</time>
      </trkpt>
      <trkpt lat="45.46221" lon="4.67961">
        <ele>690</ele>
        <time>2015-10-18T22:04:38Z</time>
      </trkpt>
      <trkpt lat="45.46451" lon="4.67826">
        <ele>658</ele>
        <time>2015-10-18T22:06:38Z</time>
      </trkpt>
      <trkpt lat="45.46451" lon="4.67869">
        <ele>657</ele>
        <time>2015-10-18T22:08:38Z</time>
      </trkpt>
      <trkpt lat="45.4649" lon="4.67903">
        <ele>661</ele>
        <time>2015-10-18T22:10:38Z</time>
      </trkpt>
      <trkpt lat="45.46553" lon="4.68096">
        <ele>677</ele>
        <time>2015-10-18T22:12:38Z</time>
      </trkpt>
      <trkpt lat="45.46567" lon="4.68472">
        <ele>672</ele>
        <time>2015-10-18T22:14:38Z</time>
      </trkpt>
      <trkpt lat="45.46612" lon="4.68843">
        <ele>694</ele>
        <time>2015-10-18T22:16:38Z</time>
      </trkpt>
      <trkpt lat="45.46613" lon="4.69062">
        <ele>701</ele>
        <time>2015-10-18T22:18:38Z</time>
      </trkpt>
      <trkpt lat="45.46622" lon="4.69334">
        <ele>679</ele>
        <time>2015-10-18T22:20:38Z</time>
      </trkpt>
      <trkpt lat="45.46643" lon="4.69392">
        <ele>669</ele>
        <time>2015-10-18T22:22:38Z</time>
      </trkpt>
      <trkpt lat="45.4661" lon="4.69459">
        <ele>646</ele>
        <time>2015-10-18T22:24:38Z</time>
      </trkpt>
      <trkpt lat="45.4663" lon="4.69485">
        <ele>642</ele>
        <time>2015-10-18T22:26:38Z</time>
      </trkpt>
      <trkpt lat="45.46597" lon="4.69502">
        <ele>632</ele>
        <time>2015-10-18T22:28:38Z</time>
      </trkpt>
      <trkpt lat="45.46668" lon="4.69669">
        <ele>601</ele>
        <time>2015-10-18T22:30:38Z</time>
      </trkpt>
      <trkpt lat="45.46671" lon="4.69796">
        <ele>590</ele>
        <time>2015-10-18T22:32:38Z</time>
      </trkpt>
      <trkpt lat="45.46607" lon="4.70036">
        <ele>562</ele>
        <time>2015-10-18T22:34:38Z</time>
      </trkpt>
      <trkpt lat="45.46591" lon="4.70137">
        <ele>554</ele>
        <time>2015-10-18T22:36:38Z</time>
      </trkpt>
      <trkpt lat="45.46573" lon="4.70083">
        <ele>550</ele>
        <time>2015-10-18T22:38:38Z</time>
      </trkpt>
      <trkpt lat="45.46567" lon="4.70137">
        <ele>546</ele>
        <time>2015-10-18T22:40:38Z</time>
      </trkpt>
      <trkpt lat="45.46666" lon="4.70487">
        <ele>539</ele>
        <time>2015-10-18T22:42:38Z</time>
      </trkpt>
      <trkpt lat="45.46764" lon="4.7048">
        <ele>544</ele>
        <time>2015-10-18T22:44:38Z</time>
      </trkpt>
      <trkpt lat="45.4681" lon="4.70448">
        <ele>537</ele>
        <time>2015-10-18T22:46:38Z</time>
      </trkpt>
      <trkpt lat="45.46854" lon="4.70351">
        <ele>539</ele>
        <time>2015-10-18T22:48:38Z</time>
      </trkpt>
      <trkpt lat="45.46902" lon="4.70354">
        <ele>537</ele>
        <time>2015-10-18T22:50:38Z</time>
      </trkpt>
      <trkpt lat="45.46938" lon="4.70394">
        <ele>528</ele>
        <time>2015-10-18T22:52:38Z</time>
      </trkpt>
      <trkpt lat="45.46901" lon="4.70381">
        <ele>532</ele>
        <time>2015-10-18T22:54:38Z</time>
      </trkpt>
      <trkpt lat="45.46854" lon="4.70399">
        <ele>533</ele>
        <time>2015-10-18T22:56:38Z</time>
      </trkpt>
      <trkpt lat="45.46857" lon="4.70587">
        <ele>517</ele>
        <time>2015-10-18T22:58:38Z</time>
      </trkpt>
      <trkpt lat="45.46815" lon="4.70693">
        <ele>507</ele>
        <time>2015-10-18T23:00:38Z</time>
      </trkpt>
      <trkpt lat="45.46812" lon="4.70772">
        <ele>498</ele>
        <time>2015-10-18T23:02:38Z</time>
      </trkpt>
      <trkpt lat="45.46818" lon="4.70976">
        <ele>478</ele>
        <time>2015-10-18T23:04:38Z</time>
      </trkpt>
      <trkpt lat="45.46776" lon="4.71023">
        <ele>473</ele>
        <time>2015-10-18T23:06:38Z</time>
      </trkpt>
      <trkpt lat="45.46684" lon="4.70993">
        <ele>474</ele>
        <time>2015-10-18T23:08:38Z</time>
      </trkpt>
      <trkpt lat="45.46654" lon="4.70967">
        <ele>476</ele>
        <time>2015-10-18T23:10:38Z</time>
      </trkpt>
      <trkpt lat="45.46622" lon="4.7122">
        <ele>463</ele>
        <time>2015-10-18T23:12:38Z</time>
      </trkpt>
      <trkpt lat="45.46631" lon="4.71304">
        <ele>459</ele>
        <time>2015-10-18T23:14:38Z</time>
      </trkpt>
      <trkpt lat="45.4658" lon="4.71366">
        <ele>457</ele>
        <time>2015-10-18T23:16:38Z</time>
      </trkpt>
      <trkpt lat="45.46525" lon="4.71465">
        <ele>447</ele>
        <time>2015-10-18T23:18:38Z</time>
      </trkpt>
      <trkpt lat="45.46482" lon="4.71491">
        <ele>440</ele>
        <time>2015-10-18T23:20:38Z</time>
      </trkpt>
      <trkpt lat="45.46446" lon="4.71538">
        <ele>431</ele>
        <time>2015-10-18T23:22:38Z</time>
      </trkpt>
      <trkpt lat="45.46446" lon="4.71585">
        <ele>427</ele>
        <time>2015-10-18T23:24:38Z</time>
      </trkpt>
      <trkpt lat="45.46329" lon="4.71881">
        <ele>403</ele>
        <time>2015-10-18T23:26:38Z</time>
      </trkpt>
      <trkpt lat="45.46335" lon="4.71952">
        <ele>402</ele>
        <time>2015-10-18T23:28:38Z</time>
      </trkpt>
      <trkpt lat="45.46482" lon="4.72072">
        <ele>394</ele>
        <time>2015-10-18T23:30:38Z</time>
      </trkpt>
      <trkpt lat="45.46522" lon="4.72132">
        <ele>392</ele>
        <time>2015-10-18T23:32:38Z</time>
      </trkpt>
      <trkpt lat="45.46565" lon="4.72235">
        <ele>387</ele>
        <time>2015-10-18T23:34:38Z</time>
      </trkpt>
      <trkpt lat="45.46607" lon="4.7227">
        <ele>384</ele>
        <time>2015-10-18T23:36:38Z</time>
      </trkpt>
      <trkpt lat="45.46651" lon="4.72326">
        <ele>380</ele>
        <time>2015-10-18T23:38:38Z</time>
      </trkpt>
      <trkpt lat="45.46681" lon="4.72463">
        <ele>374</ele>
        <time>2015-10-18T23:40:38Z</time>
      </trkpt>
      <trkpt lat="45.46767" lon="4.72645">
        <ele>360</ele>
        <time>2015-10-18T23:42:38Z</time>
      </trkpt>
      <trkpt lat="45.46789" lon="4.7272">
        <ele>359</ele>
        <time>2015-10-18T23:44:38Z</time>
      </trkpt>
      <trkpt lat="45.46794" lon="4.72832">
        <ele>358</ele>
        <time>2015-10-18T23:46:38Z</time>
      </trkpt>
      <trkpt lat="45.4683" lon="4.72952">
        <ele>360</ele>
        <time>2015-10-18T23:48:38Z</time>
      </trkpt>
      <trkpt lat="45.46829" lon="4.73001">
        <ele>360</ele>
        <time>2015-10-18T23:50:38Z</time>
      </trkpt>
      <trkpt lat="45.46853" lon="4.73059">
        <ele>361</ele>
        <time>2015-10-18T23:52:38Z</time>
      </trkpt>
      <trkpt lat="45.46899" lon="4.73343">
        <ele>358</ele>
        <time>2015-10-18T23:54:38Z</time>
      </trkpt>
      <trkpt lat="45.4695" lon="4.73491">
        <ele>350</ele>
        <time>2015-10-18T23:56:38Z</time>
      </trkpt>
      <trkpt lat="45.47002" lon="4.73795">
        <ele>341</ele>
        <time>2015-10-18T23:58:38Z</time>
      </trkpt>
      <trkpt lat="45.4703" lon="4.73943">
        <ele>337</ele>
        <time>2015-10-19T00:00:38Z</time>
      </trkpt>
      <trkpt lat="45.47041" lon="4.74096">
        <ele>340</ele>
        <time>2015-10-19T00:02:38Z</time>
      </trkpt>
      <trkpt lat="45.47048" lon="4.74495">
        <ele>335</ele>
        <time>2015-10-19T00:04:38Z</time>
      </trkpt>
      <trkpt lat="45.47089" lon="4.74718">
        <ele>330</ele>
        <time>2015-10-19T00:06:38Z</time>
      </trkpt>
      <trkpt lat="45.47098" lon="4.74791">
        <ele>329</ele>
        <time>2015-10-19T00:08:38Z</time>
      </trkpt>
      <trkpt lat="45.4703" lon="4.75113">
        <ele>324</ele>
        <time>2015-10-19T00:10:38Z</time>
      </trkpt>
      <trkpt lat="45.46813" lon="4.75514">
        <ele>312</ele>
        <time>2015-10-19T00:12:38Z</time>
      </trkpt>
      <trkpt lat="45.46714" lon="4.75915">
        <ele>301</ele>
        <time>2015-10-19T00:14:38Z</time>
      </trkpt>
      <trkpt lat="45.46627" lon="4.76162">
        <ele>275</ele>
        <time>2015-10-19T00:16:38Z</time>
      </trkpt>
      <trkpt lat="45.46591" lon="4.76231">
        <ele>260</ele>
        <time>2015-10-19T00:18:38Z</time>
      </trkpt>
      <trkpt lat="45.46461" lon="4.76287">
        <ele>224</ele>
        <time>2015-10-19T00:20:38Z</time>
      </trkpt>
      <trkpt lat="45.4643" lon="4.76287">
        <ele>219</ele>
        <time>2015-10-19T00:22:38Z</time>
      </trkpt>
      <trkpt lat="45.4641" lon="4.76368">
        <ele>199</ele>
        <time>2015-10-19T00:24:38Z</time>
      </trkpt>
      <trkpt lat="45.46377" lon="4.76362">
        <ele>194</ele>
        <time>2015-10-19T00:26:38Z</time>
      </trkpt>
      <trkpt lat="45.46401" lon="4.76433">
        <ele>178</ele>
        <time>2015-10-19T00:28:38Z</time>
      </trkpt>
      <trkpt lat="45.46365" lon="4.76439">
        <ele>174</ele>
        <time>2015-10-19T00:30:38Z</time>
      </trkpt>
      <trkpt lat="45.46376" lon="4.76495">
        <ele>164</ele>
        <time>2015-10-19T00:32:38Z</time>
      </trkpt>
      <trkpt lat="45.4643" lon="4.76523">
        <ele>167</ele>
        <time>2015-10-19T00:34:38Z</time>
      </trkpt>
      <trkpt lat="45.46416" lon="4.7657">
        <ele>163</ele>
        <time>2015-10-19T00:36:38Z</time>
      </trkpt>
      <trkpt lat="45.46379" lon="4.76581">
        <ele>160</ele>
        <time>2015-10-19T00:38:38Z</time>
      </trkpt>
      <trkpt lat="45.46336" lon="4.76664">
        <ele>157</ele>
        <time>2015-10-19T00:40:38Z</time>
      </trkpt>
      <trkpt lat="45.46311" lon="4.76662">
        <ele>156</ele>
        <time>2015-10-19T00:42:38Z</time>
      </trkpt>
      <trkpt lat="45.46257" lon="4.76696">
        <ele>154</ele>
        <time>2015-10-19T00:44:38Z</time>
      </trkpt>
      <trkpt lat="45.46169" lon="4.76808">
        <ele>152</ele>
        <time>2015-10-19T00:46:38Z</time>
      </trkpt>
      <trkpt lat="45.4613" lon="4.76877">
        <ele>150</ele>
        <time>2015-10-19T00:48:38Z</time>
      </trkpt>
      <trkpt lat="45.46026" lon="4.76926">
        <ele>148</ele>
        <time>2015-10-19T00:50:38Z</time>
      </trkpt>
      <trkpt lat="45.45986" lon="4.76896">
        <ele>148</ele>
        <time>2015-10-19T00:52:38Z</time>
      </trkpt>
      <trkpt lat="45.45969" lon="4.76917">
        <ele>148</ele>
        <time>2015-10-19T00:54:38Z</time>
      </trkpt>
      <trkpt lat="45.45862" lon="4.76943">
        <ele>148</ele>
        <time>2015-10-19T00:56:38Z</time>
      </trkpt>
      <trkpt lat="45.4585" lon="4.76875">
        <ele>148</ele>
        <time>2015-10-19T00:58:38Z</time>
      </trkpt>
      <trkpt lat="45.45832" lon="4.76733">
        <ele>148</ele>
        <time>2015-10-19T01:00:38Z</time>
      </trkpt>
      <trkpt lat="45.45813" lon="4.76731">
        <ele>147</ele>
        <time>2015-10-19T01:02:38Z</time>
      </trkpt>
      <trkpt lat="45.4582" lon="4.76688">
        <ele>147</ele>
        <time>2015-10-19T01:04:38Z</time>
      </trkpt>
      <trkpt lat="45.45888" lon="4.76643">
        <ele>148</ele>
        <time>2015-10-19T01:06:38Z</time>
      </trkpt>
      <trkpt lat="45.45838" lon="4.76533">
        <ele>147</ele>
        <time>2015-10-19T01:08:38Z</time>
      </trkpt>
      <trkpt lat="45.4582" lon="4.7636">
        <ele>146</ele>
        <time>2015-10-19T01:10:38Z</time>
      </trkpt>
      <trkpt lat="45.45814" lon="4.76177">
        <ele>145</ele>
        <time>2015-10-19T01:12:38Z</time>
      </trkpt>
      <trkpt lat="45.45876" lon="4.76085">
        <ele>146</ele>
        <time>2015-10-19T01:14:38Z</time>
      </trkpt>
      <trkpt lat="45.45834" lon="4.75978">
        <ele>146</ele>
        <time>2015-10-19T01:16:38Z</time>
      </trkpt>
      <trkpt lat="45.45754" lon="4.75988">
        <ele>145</ele>
        <time>2015-10-19T01:18:38Z</time>
      </trkpt>
      <trkpt lat="45.45728" lon="4.75956">
        <ele>144</ele>
        <time>2015-10-19T01:20:38Z</time>
      </trkpt>
      <trkpt lat="45.45715" lon="4.7581">
        <ele>146</ele>
        <time>2015-10-19T01:22:38Z</time>
      </trkpt>
      <trkpt lat="45.45668" lon="4.75611">
        <ele>147</ele>
        <time>2015-10-19T01:24:38Z</time>
      </trkpt>
      <trkpt lat="45.4568" lon="4.75583">
        <ele>147</ele>
        <time>2015-10-19T01:26:38Z</time>
      </trkpt>
      <trkpt lat="45.45629" lon="4.75493">
        <ele>149</ele>
        <time>2015-10-19T01:28:38Z</time>
      </trkpt>
      <trkpt lat="45.45649" lon="4.7548">
        <ele>149</ele>
        <time>2015-10-19T01:30:38Z</time>
      </trkpt>
      <trkpt lat="45.45492" lon="4.75327">
        <ele>153</ele>
        <time>2015-10-19T01:32:38Z</time>
      </trkpt>
      <trkpt lat="45.45441" lon="4.75312">
        <ele>152</ele>
        <time>2015-10-19T01:34:38Z</time>
      </trkpt>
      <trkpt lat="45.45372" lon="4.75347">
        <ele>149</ele>
        <time>2015-10-19T01:36:38Z</time>
      </trkpt>
      <trkpt lat="45.4532" lon="4.75207">
        <ele>169</ele>
        <time>2015-10-19T01:38:38Z</time>
      </trkpt>
      <trkpt lat="45.4525" lon="4.75248">
        <ele>179</ele>
        <time>2015-10-19T01:40:38Z</time>
      </trkpt>
      <trkpt lat="45.45205" lon="4.75197">
        <ele>201</ele>
        <time>2015-10-19T01:42:38Z</time>
      </trkpt>
      <trkpt lat="45.45146" lon="4.75197">
        <ele>206</ele>
        <time>2015-10-19T01:44:38Z</time>
      </trkpt>
      <trkpt lat="45.45185" lon="4.75154">
        <ele>217</ele>
        <time>2015-10-19T01:46:38Z</time>
      </trkpt>
      <trkpt lat="45.45197" lon="4.75033">
        <ele>235</ele>
        <time>2015-10-19T01:48:38Z</time>
      </trkpt>
      <trkpt lat="45.45191" lon="4.74986">
        <ele>245</ele>
        <time>2015-10-19T01:50:38Z</time>
      </trkpt>
      <trkpt lat="45.45153" lon="4.74935">
        <ele>254</ele>
        <time>2015-10-19T01:52:38Z</time>
      </trkpt>
      <trkpt lat="45.4519" lon="4.74879">
        <ele>257</ele>
        <time>2015-10-19T01:54:38Z</time>
      </trkpt>
      <trkpt lat="45.4517" lon="4.74714">
        <ele>266</ele>
        <time>2015-10-19T01:56:38Z</time>
      </trkpt>
      <trkpt lat="45.45182" lon="4.74639">
        <ele>271</ele>
        <time>2015-10-19T01:58:38Z</time>
      </trkpt>
      <trkpt lat="45.45168" lon="4.74591">
        <ele>277</ele>
        <time>2015-10-19T02:00:38Z</time>
      </trkpt>
      <trkpt lat="45.45179" lon="4.74501">
        <ele>278</ele>
        <time>2015-10-19T02:02:38Z</time>
      </trkpt>
      <trkpt lat="45.45119" lon="4.74409">
        <ele>290</ele>
        <time>2015-10-19T02:04:38Z</time>
      </trkpt>
      <trkpt lat="45.45141" lon="4.74353">
        <ele>292</ele>
        <time>2015-10-19T02:06:38Z</time>
      </trkpt>
      <trkpt lat="45.45137" lon="4.7433">
        <ele>293</ele>
        <time>2015-10-19T02:08:38Z</time>
      </trkpt>
      <trkpt lat="45.45141" lon="4.7422">
        <ele>300</ele>
        <time>2015-10-19T02:10:38Z</time>
      </trkpt>
      <trkpt lat="45.4506" lon="4.74128">
        <ele>314</ele>
        <time>2015-10-19T02:12:38Z</time>
      </trkpt>
      <trkpt lat="45.45037" lon="4.7389">
        <ele>322</ele>
        <time>2015-10-19T02:14:38Z</time>
      </trkpt>
      <trkpt lat="45.45033" lon="4.7378">
        <ele>325</ele>
        <time>2015-10-19T02:16:38Z</time>
      </trkpt>
      <trkpt lat="45.44888" lon="4.73486">
        <ele>324</ele>
        <time>2015-10-19T02:18:38Z</time>
      </trkpt>
      <trkpt lat="45.44854" lon="4.73263">
        <ele>329</ele>
        <time>2015-10-19T02:20:38Z</time>
      </trkpt>
      <trkpt lat="45.44873" lon="4.73066">
        <ele>329</ele>
        <time>2015-10-19T02:22:38Z</time>
      </trkpt>
      <trkpt lat="45.44904" lon="4.73001">
        <ele>330</ele>
        <time>2015-10-19T02:24:38Z</time>
      </trkpt>
      <trkpt lat="45.44956" lon="4.72982">
        <ele>330</ele>
        <time>2015-10-19T02:26:38Z</time>
      </trkpt>
      <trkpt lat="45.44977" lon="4.72954">
        <ele>332</ele>
        <time>2015-10-19T02:28:38Z</time>
      </trkpt>
      <trkpt lat="45.4494" lon="4.72795">
        <ele>345</ele>
        <time>2015-10-19T02:30:38Z</time>
      </trkpt>
      <trkpt lat="45.4487" lon="4.72688">
        <ele>352</ele>
        <time>2015-10-19T02:32:38Z</time>
      </trkpt>
      <trkpt lat="45.44785" lon="4.72624">
        <ele>354</ele>
        <time>2015-10-19T02:34:38Z</time>
      </trkpt>
      <trkpt lat="45.44718" lon="4.72459">
        <ele>361</ele>
        <time>2015-10-19T02:36:38Z</time>
      </trkpt>
      <trkpt lat="45.44667" lon="4.72373">
        <ele>365</ele>
        <time>2015-10-19T02:38:38Z</time>
      </trkpt>
      <trkpt lat="45.44697" lon="4.72298">
        <ele>369</ele>
        <time>2015-10-19T02:40:38Z</time>
      </trkpt>
      <trkpt lat="45.44619" lon="4.7219">
        <ele>375</ele>
        <time>2015-10-19T02:42:38Z</time>
      </trkpt>
      <trkpt lat="45.44589" lon="4.72014">
        <ele>385</ele>
        <time>2015-10-19T02:44:38Z</time>
      </trkpt>
      <trkpt lat="45.44526" lon="4.71875">
        <ele>399</ele>
        <time>2015-10-19T02:46:38Z</time>
      </trkpt>
      <trkpt lat="45.44496" lon="4.71768">
        <ele>405</ele>
        <time>2015-10-19T02:48:38Z</time>
      </trkpt>
      <trkpt lat="45.44423" lon="4.71712">
        <ele>407</ele>
        <time>2015-10-19T02:50:38Z</time>
      </trkpt>
      <trkpt lat="45.44347" lon="4.71594">
        <ele>412</ele>
        <time>2015-10-19T02:52:38Z</time>
      </trkpt>
      <trkpt lat="45.4436" lon="4.71454">
        <ele>419</ele>
        <time>2015-10-19T02:54:38Z</time>
      </trkpt>
      <trkpt lat="45.44357" lon="4.71358">
        <ele>424</ele>
        <time>2015-10-19T02:56:38Z</time>
      </trkpt>
      <trkpt lat="45.44322" lon="4.7118">
        <ele>433</ele>
        <time>2015-10-19T02:58:38Z</time>
      </trkpt>
      <trkpt lat="45.44321" lon="4.71105">
        <ele>436</ele>
        <time>2015-10-19T03:00:38Z</time>
      </trkpt>
      <trkpt lat="45.44217" lon="4.70862">
        <ele>446</ele>
        <time>2015-10-19T03:02:38Z</time>
      </trkpt>
      <trkpt lat="45.44185" lon="4.70718">
        <ele>445</ele>
        <time>2015-10-19T03:04:38Z</time>
      </trkpt>
      <trkpt lat="45.44017" lon="4.70197">
        <ele>443</ele>
        <time>2015-10-19T03:06:38Z</time>
      </trkpt>
      <trkpt lat="45.43969" lon="4.70023">
        <ele>449</ele>
        <time>2015-10-19T03:08:38Z</time>
      </trkpt>
      <trkpt lat="45.43889" lon="4.69729">
        <ele>463</ele>
        <time>2015-10-19T03:10:38Z</time>
      </trkpt>
      <trkpt lat="45.43815" lon="4.69596">
        <ele>472</ele>
        <time>2015-10-19T03:12:38Z</time>
      </trkpt>
      <trkpt lat="45.43762" lon="4.6945">
        <ele>473</ele>
        <time>2015-10-19T03:14:38Z</time>
      </trkpt>
      <trkpt lat="45.43666" lon="4.69489">
        <ele>479</ele>
        <time>2015-10-19T03:16:38Z</time>
      </trkpt>
      <trkpt lat="45.43555" lon="4.69497">
        <ele>483</ele>
        <time>2015-10-19T03:18:38Z</time>
      </trkpt>
      <trkpt lat="45.43452" lon="4.69397">
        <ele>481</ele>
        <time>2015-10-19T03:20:38Z</time>
      </trkpt>
      <trkpt lat="45.43267" lon="4.69377">
        <ele>461</ele>
        <time>2015-10-19T03:22:38Z</time>
      </trkpt>
      <trkpt lat="45.43151" lon="4.69302">
        <ele>450</ele>
        <time>2015-10-19T03:24:38Z</time>
      </trkpt>
      <trkpt lat="45.42997" lon="4.69272">
        <ele>432</ele>
        <time>2015-10-19T03:26:38Z</time>
      </trkpt>
      <trkpt lat="45.42943" lon="4.68916">
        <ele>434</ele>
        <time>2015-10-19T03:28:38Z</time>
      </trkpt>
      <trkpt lat="45.42877" lon="4.68873">
        <ele>426</ele>
        <time>2015-10-19T03:30:38Z</time>
      </trkpt>
      <trkpt lat="45.42916" lon="4.68749">
        <ele>421</ele>
        <time>2015-10-19T03:32:38Z</time>
      </trkpt>
      <trkpt lat="45.43015" lon="4.68635">
        <ele>411</ele>
        <time>2015-10-19T03:34:38Z</time>
      </trkpt>
      <trkpt lat="45.43101" lon="4.68648">
        <ele>415</ele>
        <time>2015-10-19T03:36:38Z</time>
      </trkpt>
      <trkpt lat="45.43058" lon="4.68555">
        <ele>410</ele>
        <time>2015-10-19T03:38:38Z</time>
      </trkpt>
      <trkpt lat="45.43074" lon="4.68467">
        <ele>415</ele>
        <time>2015-10-19T03:40:38Z</time>
      </trkpt>
      <trkpt lat="45.43022" lon="4.68373">
        <ele>415</ele>
        <time>2015-10-19T03:42:38Z</time>
      </trkpt>
      <trkpt lat="45.42987" lon="4.68236">
        <ele>416</ele>
        <time>2015-10-19T03:44:38Z</time>
      </trkpt>
      <trkpt lat="45.42927" lon="4.6806">
        <ele>407</ele>
        <time>2015-10-19T03:46:38Z</time>
      </trkpt>
      <trkpt lat="45.42975" lon="4.67884">
        <ele>408</ele>
        <time>2015-10-19T03:48:38Z</time>
      </trkpt>
      <trkpt lat="45.42952" lon="4.67854">
        <ele>407</ele>
        <time>2015-10-19T03:50:38Z</time>
      </trkpt>
      <trkpt lat="45.42927" lon="4.67879">
        <ele>405</ele>
        <time>2015-10-19T03:52:38Z</time>
      </trkpt>
      <trkpt lat="45.42553" lon="4.67858">
        <ele>421</ele>
        <time>2015-10-19T03:54:38Z</time>
      </trkpt>
      <trkpt lat="45.42392" lon="4.67946">
        <ele>418</ele>
        <time>2015-10-19T03:56:38Z</time>
      </trkpt>
      <trkpt lat="45.42318" lon="4.67993">
        <ele>419</ele>
        <time>2015-10-19T03:58:38Z</time>
      </trkpt>
      <trkpt lat="45.42169" lon="4.68028">
        <ele>419</ele>
        <time>2015-10-19T04:00:38Z</time>
      </trkpt>
      <trkpt lat="45.42119" lon="4.68019">
        <ele>420</ele>
        <time>2015-10-19T04:02:38Z</time>
      </trkpt>
      <trkpt lat="45.42037" lon="4.67935">
        <ele>426</ele>
        <time>2015-10-19T04:04:38Z</time>
      </trkpt>
      <trkpt lat="45.41987" lon="4.67946">
        <ele>425</ele>
        <time>2015-10-19T04:06:38Z</time>
      </trkpt>
      <trkpt lat="45.41991" lon="4.678">
        <ele>434</ele>
        <time>2015-10-19T04:08:38Z</time>
      </trkpt>
      <trkpt lat="45.41961" lon="4.67719">
        <ele>440</ele>
        <time>2015-10-19T04:10:38Z</time>
      </trkpt>
      <trkpt lat="45.41869" lon="4.67812">
        <ele>439</ele>
        <time>2015-10-19T04:12:38Z</time>
      </trkpt>
    </trkseg>
  </trk>
</gpx>